OPRN/ISB METAR and TAF weather

Enter ICAO airport designator
Station Type Date Time Source
OPRN METAR 2019/04/13 13:25 UTC NOAA

OPRN 131325Z NI


Station Type Date Time Source
OPRN Decoded METAR 2019/04/13 13:25 UTC NOAA

Islamabad Airport, Pakistan (OPRN) 33-37N 073-06E 508M
Apr 13, 2019 - 09:25 AM EDT / 2019.04.13 1325 UTC
ob: OPRN 131325Z NI
cycle: 13

Station Type Date Time Source
OPRN TAF 2019/02/26 18:04 UTC NOAA

TAF OPRN 261530Z 2618/2724 30010KT 6000 SCT040 FEW100
TEMPO 2700/2703 30010KT 4000 RA SCT030 OVC090
BECMG 2706/2708 27010KT 6000 NSC

Example: see airport list